createdAt,value
2023-03-14T00:00:52.052Z,19.30
2023-03-14T00:03:19.158Z,18.77
2023-03-14T00:05:45.979Z,19.85
2023-03-14T00:08:13.017Z,19.67
2023-03-14T00:10:40.057Z,18.25
2023-03-14T00:13:06.942Z,19.10
2023-03-14T00:15:35.154Z,19.00
2023-03-14T00:18:02.231Z,18.00
2023-03-14T00:20:29.038Z,17.33
2023-03-14T00:22:55.772Z,18.70
2023-03-14T00:25:22.481Z,18.45
2023-03-14T00:27:51.984Z,17.98
2023-03-14T00:30:18.950Z,17.08
2023-03-14T00:32:45.805Z,18.17
2023-03-14T00:35:12.817Z,16.98
2023-03-14T00:37:39.778Z,17.35
2023-03-14T00:40:08.226Z,16.42
2023-03-14T00:42:35.742Z,17.58
2023-03-14T00:45:02.505Z,17.15
2023-03-14T00:47:29.237Z,16.42
2023-03-14T00:49:56.028Z,15.50
2023-03-14T00:52:22.736Z,16.58
2023-03-14T00:54:49.387Z,16.63
2023-03-14T00:57:16.195Z,16.67
2023-03-14T00:59:42.900Z,15.90
2023-03-14T01:02:09.670Z,18.10
2023-03-14T01:04:38.621Z,15.80
2023-03-14T01:07:05.473Z,15.57
2023-03-14T01:09:32.266Z,14.68
2023-03-14T01:11:58.960Z,15.00
2023-03-14T01:14:25.697Z,15.95
2023-03-14T01:16:52.464Z,15.10
2023-03-14T01:19:19.237Z,14.70
2023-03-14T01:21:45.972Z,14.63
2023-03-14T01:24:13.266Z,14.30
2023-03-14T01:26:39.965Z,14.70
2023-03-14T01:29:06.725Z,15.07
2023-03-14T01:31:33.532Z,13.95
2023-03-14T01:34:00.296Z,13.88
2023-03-14T01:36:27.032Z,16.17
2023-03-14T01:38:53.905Z,14.57
2023-03-14T01:41:23.908Z,14.23
2023-03-14T01:43:51.426Z,13.88
2023-03-14T01:46:23.318Z,14.27
2023-03-14T01:49:13.317Z,15.52
2023-03-14T01:51:43.393Z,15.90
2023-03-14T01:54:13.153Z,16.05
2023-03-14T01:56:42.733Z,15.65
2023-03-14T01:59:11.489Z,15.27
2023-03-14T02:01:42.127Z,15.52
2023-03-14T02:04:09.731Z,16.02
2023-03-14T02:06:53.738Z,16.63
2023-03-14T02:09:21.812Z,16.60
2023-03-14T02:11:49.914Z,17.10
2023-03-14T02:14:37.716Z,15.73
2023-03-14T02:17:08.244Z,14.55
2023-03-14T02:19:50.357Z,15.90
2023-03-14T02:22:18.474Z,15.80
2023-03-14T02:25:09.313Z,16.38
2023-03-14T02:27:36.304Z,15.10
2023-03-14T02:30:14.462Z,15.10
2023-03-14T02:32:46.133Z,15.10
2023-03-14T02:35:18.382Z,15.70
2023-03-14T02:37:51.925Z,15.27
2023-03-14T02:40:19.285Z,15.52
2023-03-14T02:42:46.294Z,14.80
2023-03-14T02:45:12.950Z,14.95
2023-03-14T02:47:56.278Z,15.48
2023-03-14T02:50:27.533Z,15.65
2023-03-14T02:52:54.219Z,15.30
2023-03-14T02:55:22.612Z,16.05
2023-03-14T02:57:49.378Z,15.30
2023-03-14T03:00:16.480Z,15.57
2023-03-14T03:02:43.232Z,15.57
2023-03-14T03:05:10.081Z,15.50
2023-03-14T03:07:36.826Z,14.95
2023-03-14T03:10:04.856Z,14.85
2023-03-14T03:12:31.661Z,14.93
2023-03-14T03:14:58.374Z,14.07
2023-03-14T03:17:25.083Z,15.15
2023-03-14T03:19:51.826Z,14.73
2023-03-14T03:22:18.583Z,14.75
2023-03-14T03:24:45.531Z,14.55
2023-03-14T03:27:12.216Z,15.38
2023-03-14T03:29:38.967Z,14.30
2023-03-14T03:32:06.066Z,15.30
2023-03-14T03:34:32.744Z,15.63
2023-03-14T03:36:59.560Z,14.25
2023-03-14T03:39:26.308Z,14.77
2023-03-14T03:41:52.993Z,14.40
2023-03-14T03:44:19.741Z,14.32
2023-03-14T03:46:46.402Z,14.40
2023-03-14T03:49:13.029Z,13.85
2023-03-14T03:51:41.217Z,13.73
2023-03-14T03:54:07.964Z,14.23
2023-03-14T03:56:34.702Z,14.93
2023-03-14T03:59:01.460Z,13.82
2023-03-14T04:01:28.216Z,14.98
2023-03-14T04:03:55.019Z,15.57
2023-03-14T04:06:22.194Z,16.23
2023-03-14T04:08:48.981Z,15.65
2023-03-14T04:11:17.237Z,16.00
2023-03-14T04:13:44.834Z,15.43
2023-03-14T04:16:17.468Z,15.50
2023-03-14T04:18:44.260Z,14.50
2023-03-14T04:21:10.977Z,14.65
2023-03-14T04:23:37.943Z,15.85
2023-03-14T04:26:05.002Z,14.77
2023-03-14T04:28:31.807Z,16.20
2023-03-14T04:30:58.824Z,16.70
2023-03-14T04:33:25.561Z,16.70
2023-03-14T04:35:55.399Z,17.77
2023-03-14T04:38:22.158Z,16.50
2023-03-14T04:40:48.861Z,17.33
2023-03-14T04:43:15.642Z,17.40
2023-03-14T04:45:43.583Z,17.77
2023-03-14T04:48:10.472Z,17.85
2023-03-14T04:50:37.232Z,17.95
2023-03-14T04:53:03.922Z,17.27
2023-03-14T04:55:30.654Z,18.83
2023-03-14T04:57:57.304Z,19.23
2023-03-14T05:00:24.204Z,17.08
2023-03-14T05:02:51.165Z,17.95
2023-03-14T05:05:18.021Z,17.00
2023-03-14T05:07:44.867Z,17.75
2023-03-14T05:10:11.860Z,17.70
2023-03-14T05:12:38.631Z,17.45
2023-03-14T05:15:06.088Z,16.35
2023-03-14T05:17:36.401Z,16.58
2023-03-14T05:20:09.720Z,17.20
2023-03-14T05:22:36.509Z,16.35
2023-03-14T05:25:03.364Z,17.77
2023-03-14T05:27:30.095Z,16.70
2023-03-14T05:29:56.750Z,15.95
2023-03-14T05:32:23.476Z,16.30
2023-03-14T05:34:50.308Z,16.85
2023-03-14T05:37:18.935Z,17.85
2023-03-14T05:39:46.392Z,17.60
2023-03-14T05:42:13.081Z,16.65
2023-03-14T05:44:39.816Z,16.73
2023-03-14T05:47:06.587Z,17.08
2023-03-14T05:49:33.342Z,17.48
2023-03-14T05:51:59.989Z,15.88
2023-03-14T05:54:26.726Z,17.48
2023-03-14T05:56:53.537Z,16.33
2023-03-14T05:59:20.268Z,17.77
2023-03-14T06:01:47.071Z,16.55
2023-03-14T06:04:14.535Z,16.90
2023-03-14T06:06:41.245Z,16.75
2023-03-14T06:09:07.999Z,17.95
2023-03-14T06:11:34.823Z,17.55
2023-03-14T06:14:01.541Z,16.73
2023-03-14T06:16:28.294Z,16.85
2023-03-14T06:18:55.081Z,16.60
2023-03-14T06:21:22.803Z,17.90
2023-03-14T06:23:49.527Z,18.02
2023-03-14T06:26:16.246Z,16.60
2023-03-14T06:28:42.995Z,16.63
2023-03-14T06:31:09.737Z,17.73
2023-03-14T06:33:36.626Z,16.10
2023-03-14T06:36:03.514Z,17.65
2023-03-14T06:38:30.246Z,17.85
2023-03-14T06:40:56.987Z,17.02
2023-03-14T06:43:23.685Z,17.38
2023-03-14T06:45:50.405Z,18.63
2023-03-14T06:48:17.235Z,16.95
2023-03-14T06:50:44.071Z,18.95
2023-03-14T06:53:10.809Z,19.10
2023-03-14T06:55:37.586Z,19.45
2023-03-14T06:58:04.223Z,19.23
2023-03-14T07:00:31.048Z,20.20
2023-03-14T07:02:57.960Z,19.67
2023-03-14T07:05:24.743Z,18.95
2023-03-14T07:07:51.426Z,20.25
2023-03-14T07:10:18.538Z,19.65
2023-03-14T07:12:45.340Z,20.25
2023-03-14T07:15:18.519Z,19.77
2023-03-14T07:20:16.382Z,17.75
2023-03-14T07:22:43.265Z,19.83
2023-03-14T07:25:12.985Z,19.10
2023-03-14T07:27:39.891Z,19.33
2023-03-14T07:30:07.236Z,20.92
2023-03-14T07:32:34.348Z,20.70
2023-03-14T07:35:01.135Z,19.17
2023-03-14T07:37:27.838Z,20.90
2023-03-14T07:39:54.728Z,18.80
2023-03-14T07:42:21.753Z,18.90
2023-03-14T07:44:48.483Z,19.63
2023-03-14T07:47:15.221Z,20.60
2023-03-14T07:49:41.861Z,18.13
2023-03-14T07:52:08.546Z,18.17
2023-03-14T07:54:35.763Z,19.35
2023-03-14T07:57:02.478Z,18.75
2023-03-14T07:59:29.247Z,18.85
2023-03-14T08:01:56.065Z,17.58
2023-03-14T08:04:22.853Z,17.13
2023-03-14T08:06:49.598Z,16.85
2023-03-14T08:09:16.647Z,16.92
2023-03-14T08:11:43.369Z,16.35
2023-03-14T08:14:11.998Z,16.52
2023-03-14T08:16:38.708Z,15.73
2023-03-14T08:19:05.466Z,16.10
2023-03-14T08:21:32.208Z,16.60
2023-03-14T08:23:58.987Z,18.10
2023-03-14T08:26:25.737Z,18.75
2023-03-14T08:28:52.561Z,18.85
2023-03-14T08:31:19.417Z,18.15
2023-03-14T08:33:46.181Z,19.25
2023-03-14T08:36:12.875Z,16.90
2023-03-14T08:38:39.705Z,16.70
2023-03-14T08:41:06.634Z,16.67
2023-03-14T08:43:33.430Z,17.02
2023-03-14T08:46:01.527Z,16.58
2023-03-14T08:48:30.324Z,17.65
2023-03-14T08:51:07.439Z,16.98
2023-03-14T08:53:34.543Z,18.63
2023-03-14T08:56:01.299Z,18.42
2023-03-14T08:58:28.501Z,18.08
2023-03-14T09:00:55.291Z,17.17
2023-03-14T09:03:24.148Z,18.60
2023-03-14T09:05:52.130Z,16.52
2023-03-14T09:08:18.996Z,17.00
2023-03-14T09:10:45.819Z,16.80
2023-03-14T09:13:12.616Z,16.05
2023-03-14T09:15:39.838Z,17.13
2023-03-14T09:18:06.571Z,16.00
2023-03-14T09:20:33.342Z,16.83
2023-03-14T09:23:00.049Z,18.05
2023-03-14T09:25:26.760Z,17.73
2023-03-14T09:27:53.522Z,18.15
2023-03-14T09:30:20.254Z,19.98
2023-03-14T09:32:47.014Z,19.63
2023-03-14T09:35:13.862Z,20.35
2023-03-14T09:37:40.783Z,20.75
2023-03-14T09:40:13.062Z,20.27
2023-03-14T09:42:41.468Z,20.23
2023-03-14T09:45:18.375Z,20.20
2023-03-14T09:47:58.521Z,21.83
2023-03-14T09:50:31.700Z,20.92
2023-03-14T09:53:12.550Z,21.83
2023-03-14T09:55:40.005Z,21.45
2023-03-14T09:58:15.244Z,20.10
2023-03-14T10:00:41.946Z,21.30
2023-03-14T10:03:14.541Z,19.42
2023-03-14T10:05:44.024Z,20.17
2023-03-14T10:08:14.893Z,20.70
2023-03-14T10:10:42.061Z,20.42
2023-03-14T10:13:16.507Z,18.48
2023-03-14T10:15:47.621Z,19.48
2023-03-14T10:18:15.270Z,17.92
2023-03-14T10:20:48.228Z,17.10
2023-03-14T10:23:15.837Z,16.42
2023-03-14T10:25:45.029Z,20.30
2023-03-14T10:28:26.232Z,18.50
2023-03-14T10:30:53.383Z,19.33
2023-03-14T10:33:23.204Z,17.77
2023-03-14T10:35:59.881Z,20.73
2023-03-14T10:38:31.995Z,23.45
2023-03-14T10:41:00.139Z,28.98
2023-03-14T10:43:33.540Z,26.73
2023-03-14T10:46:10.486Z,27.05
2023-03-14T10:48:41.982Z,34.80
2023-03-14T10:51:17.577Z,34.10
2023-03-14T10:53:47.075Z,33.38
2023-03-14T10:56:16.189Z,33.55
2023-03-14T10:58:48.773Z,33.30
2023-03-14T11:01:24.341Z,32.00
2023-03-14T11:04:15.970Z,32.17
2023-03-14T11:06:51.391Z,32.53
2023-03-14T11:09:33.566Z,32.05
2023-03-14T11:12:24.424Z,30.02
2023-03-14T11:15:06.613Z,32.25
2023-03-14T11:17:46.342Z,32.33
2023-03-14T11:20:44.957Z,26.23
2023-03-14T11:23:31.670Z,27.77
2023-03-14T11:26:24.463Z,27.17
2023-03-14T11:28:57.849Z,28.52
2023-03-14T11:31:29.878Z,30.60
2023-03-14T11:34:44.215Z,29.48
2023-03-14T11:37:34.978Z,25.35
2023-03-14T11:40:16.914Z,26.63
2023-03-14T11:42:47.595Z,27.45
2023-03-14T11:45:21.325Z,27.90
2023-03-14T11:48:00.383Z,26.55
2023-03-14T11:50:30.995Z,26.35
2023-03-14T11:53:10.371Z,23.55
2023-03-14T11:55:39.874Z,22.95
2023-03-14T11:58:21.414Z,19.58
2023-03-14T12:00:50.178Z,20.08
2023-03-14T12:03:39.746Z,19.67
2023-03-14T12:06:22.641Z,20.13
2023-03-14T12:08:51.107Z,20.05
2023-03-14T12:11:53.643Z,22.50
2023-03-14T12:14:29.527Z,22.75
2023-03-14T12:17:35.192Z,22.33
2023-03-14T12:20:07.476Z,22.88
2023-03-14T12:22:42.130Z,21.20
2023-03-14T12:25:16.835Z,20.83
2023-03-14T12:27:55.464Z,20.98
2023-03-14T12:30:37.470Z,20.67
2023-03-14T12:33:10.003Z,21.52
2023-03-14T12:35:36.950Z,21.45
2023-03-14T12:38:20.212Z,21.20
2023-03-14T12:41:15.166Z,23.50
2023-03-14T12:43:42.361Z,22.80
2023-03-14T12:46:18.191Z,22.88
2023-03-14T12:49:06.826Z,22.42
2023-03-14T12:51:44.939Z,20.85
2023-03-14T12:54:26.704Z,20.98
2023-03-14T12:57:05.679Z,18.63
2023-03-14T12:59:46.626Z,19.73
2023-03-14T13:02:27.037Z,18.85
2023-03-14T13:05:05.717Z,18.00
2023-03-14T13:07:40.262Z,16.98
2023-03-14T13:12:56.285Z,16.23
2023-03-14T13:15:25.115Z,16.10
2023-03-14T13:17:54.776Z,15.57
2023-03-14T13:20:29.489Z,15.45
2023-03-14T13:22:56.480Z,14.55
2023-03-14T13:25:23.889Z,14.73
2023-03-14T13:27:56.642Z,15.50
2023-03-14T13:30:30.584Z,14.98
2023-03-14T13:32:57.910Z,13.55
2023-03-14T13:35:38.646Z,14.15
2023-03-14T13:38:11.925Z,13.73
2023-03-14T13:40:39.559Z,14.30
2023-03-14T13:43:34.310Z,15.23
2023-03-14T13:46:35.998Z,14.77
2023-03-14T13:49:10.377Z,13.95
2023-03-14T13:51:40.728Z,13.20
2023-03-14T13:54:20.810Z,15.65
2023-03-14T13:56:48.078Z,15.57
2023-03-14T13:59:32.820Z,14.45
2023-03-14T14:02:04.685Z,14.18
2023-03-14T14:04:36.348Z,15.00
2023-03-14T14:07:09.065Z,14.63
2023-03-14T14:09:44.081Z,15.55
2023-03-14T14:12:17.661Z,15.05
2023-03-14T14:14:57.287Z,15.07
2023-03-14T14:17:28.944Z,15.52
2023-03-14T14:19:57.543Z,15.73
2023-03-14T14:22:25.219Z,15.38
2023-03-14T14:24:52.966Z,15.93
2023-03-14T14:27:35.978Z,14.98
2023-03-14T14:30:05.952Z,14.70
2023-03-14T14:32:40.319Z,14.25
2023-03-14T14:35:11.218Z,15.35
2023-03-14T14:37:45.224Z,14.30
2023-03-14T14:40:21.128Z,14.48
2023-03-14T14:42:48.846Z,15.52
2023-03-14T14:45:19.542Z,14.50
2023-03-14T14:47:54.157Z,15.10
2023-03-14T14:50:52.550Z,15.60
2023-03-14T14:53:39.347Z,15.07
2023-03-14T14:56:29.603Z,14.57
2023-03-14T14:59:02.704Z,12.88
2023-03-14T15:01:48.650Z,14.43
2023-03-14T15:04:16.057Z,14.48
2023-03-14T15:06:50.046Z,13.82
2023-03-14T15:09:18.247Z,15.73
2023-03-14T15:11:45.565Z,15.10
2023-03-14T15:14:12.392Z,15.50
2023-03-14T15:16:40.611Z,14.38
2023-03-14T15:19:25.223Z,13.98
2023-03-14T15:21:54.295Z,14.23
2023-03-14T15:24:21.678Z,14.55
2023-03-14T15:26:48.626Z,13.82
2023-03-14T15:29:15.411Z,14.25
2023-03-14T15:31:44.135Z,14.52
2023-03-14T15:34:11.385Z,14.20
2023-03-14T15:36:39.159Z,13.73
2023-03-14T15:39:07.566Z,14.32
2023-03-14T15:41:34.771Z,16.20
2023-03-14T15:44:01.893Z,16.48
2023-03-14T15:46:30.903Z,16.48
2023-03-14T15:48:57.957Z,16.58
2023-03-14T15:51:24.684Z,15.45
2023-03-14T15:53:52.676Z,16.52
2023-03-14T15:56:20.716Z,16.00
2023-03-14T15:58:47.745Z,17.08
2023-03-14T16:01:19.221Z,17.92
2023-03-14T16:03:46.412Z,17.27
2023-03-14T16:06:14.269Z,18.40
2023-03-14T16:08:41.539Z,17.67
2023-03-14T16:11:09.786Z,19.20
2023-03-14T16:13:36.524Z,18.55
2023-03-14T16:16:05.519Z,18.77
2023-03-14T16:18:34.899Z,19.77
2023-03-14T16:21:06.367Z,18.08
2023-03-14T16:23:33.735Z,18.75
2023-03-14T16:26:03.491Z,19.58
2023-03-14T16:28:30.257Z,19.23
2023-03-14T16:31:08.799Z,19.42
2023-03-14T16:33:36.882Z,19.83
2023-03-14T16:36:08.374Z,20.42
2023-03-14T16:38:36.761Z,19.73
2023-03-14T16:41:07.328Z,20.15
2023-03-14T16:43:37.125Z,18.67
2023-03-14T16:46:05.296Z,20.15
2023-03-14T16:48:32.201Z,19.80
2023-03-14T16:50:58.945Z,18.60
2023-03-14T16:53:29.124Z,18.35
2023-03-14T16:55:56.702Z,18.88
2023-03-14T16:58:23.463Z,19.45
2023-03-14T17:00:50.236Z,17.52
2023-03-14T17:03:18.330Z,15.82
2023-03-14T17:05:46.989Z,15.48
2023-03-14T17:08:14.380Z,15.45
2023-03-14T17:10:41.190Z,16.35
2023-03-14T17:13:08.096Z,15.52
2023-03-14T17:15:34.958Z,15.55
2023-03-14T17:18:03.179Z,14.95
2023-03-14T17:20:30.258Z,15.30
2023-03-14T17:22:57.119Z,13.82
2023-03-14T17:25:24.149Z,13.23
2023-03-14T17:27:50.900Z,13.82
2023-03-14T17:30:17.740Z,13.85
2023-03-14T17:32:44.516Z,13.40
2023-03-14T17:35:11.267Z,13.60
2023-03-14T17:37:38.139Z,12.63
2023-03-14T17:40:06.056Z,12.80
2023-03-14T17:42:32.940Z,12.15
2023-03-14T17:44:59.783Z,12.02
2023-03-14T17:47:26.575Z,10.45
2023-03-14T17:49:53.249Z,10.73
2023-03-14T17:52:20.114Z,11.43
2023-03-14T17:54:46.977Z,11.10
2023-03-14T17:57:13.738Z,11.27
2023-03-14T17:59:42.643Z,10.65
2023-03-14T18:02:11.145Z,10.50
2023-03-14T18:04:38.066Z,9.98
2023-03-14T18:07:05.079Z,9.73
2023-03-14T18:09:31.902Z,9.40
2023-03-14T18:12:07.464Z,8.90
2023-03-14T18:14:36.180Z,8.15
2023-03-14T18:17:03.612Z,8.38
2023-03-14T18:19:30.621Z,8.80
2023-03-14T18:21:57.342Z,7.88
2023-03-14T18:24:24.344Z,7.95
2023-03-14T18:26:51.088Z,7.90
2023-03-14T18:29:17.800Z,8.43
2023-03-14T18:31:45.223Z,8.30
2023-03-14T18:34:12.361Z,7.43
2023-03-14T18:36:39.210Z,6.95
2023-03-14T18:39:07.320Z,7.28
2023-03-14T18:41:35.446Z,8.10
2023-03-14T18:44:03.728Z,6.38
2023-03-14T18:46:30.696Z,6.45
2023-03-14T18:48:58.359Z,6.43
2023-03-14T18:51:26.870Z,6.18
2023-03-14T18:54:02.774Z,6.35
2023-03-14T18:56:33.681Z,6.32
2023-03-14T18:59:00.380Z,5.53
2023-03-14T19:01:31.031Z,5.65
2023-03-14T19:03:59.233Z,6.30
2023-03-14T19:06:27.847Z,6.22
2023-03-14T19:08:54.584Z,5.80
2023-03-14T19:11:21.336Z,6.65
2023-03-14T19:13:48.168Z,6.35
2023-03-14T19:16:15.881Z,7.40
2023-03-14T19:18:43.166Z,6.32
2023-03-14T19:21:12.884Z,6.20
2023-03-14T19:23:42.210Z,6.10
2023-03-14T19:26:09.966Z,6.50
2023-03-14T19:28:37.043Z,6.45
2023-03-14T19:31:04.938Z,6.25
2023-03-14T19:33:32.328Z,5.65
2023-03-14T19:35:59.233Z,6.20
2023-03-14T19:38:26.267Z,5.68
2023-03-14T19:40:59.178Z,6.03
2023-03-14T19:43:26.470Z,5.88
2023-03-14T19:45:55.440Z,5.80
2023-03-14T19:48:22.593Z,6.03
2023-03-14T19:50:49.332Z,6.35
2023-03-14T19:53:16.106Z,5.80
2023-03-14T19:55:46.570Z,5.78
2023-03-14T19:58:13.497Z,5.78
2023-03-14T20:00:41.669Z,5.40
2023-03-14T20:03:08.467Z,5.35
2023-03-14T20:05:38.413Z,5.38
2023-03-14T20:08:05.438Z,5.03
2023-03-14T20:10:34.346Z,5.07
2023-03-14T20:13:06.667Z,5.00
2023-03-14T20:15:40.174Z,5.35
2023-03-14T20:18:06.912Z,5.43
2023-03-14T20:20:33.666Z,4.65
2023-03-14T20:23:00.916Z,5.18
2023-03-14T20:25:29.059Z,5.72
2023-03-14T20:27:55.800Z,4.75
2023-03-14T20:30:23.931Z,5.30
2023-03-14T20:32:51.111Z,4.25
2023-03-14T20:35:24.413Z,3.70
2023-03-14T20:37:56.224Z,3.85
2023-03-14T20:40:24.562Z,3.67
2023-03-14T20:42:51.913Z,3.20
2023-03-14T20:45:19.053Z,3.30
2023-03-14T20:47:45.873Z,2.85
2023-03-14T20:50:12.989Z,2.72
2023-03-14T20:52:39.875Z,2.38
2023-03-14T20:55:07.424Z,2.08
2023-03-14T20:57:34.285Z,2.40
2023-03-14T21:00:01.160Z,2.08
2023-03-14T21:02:27.912Z,1.95
2023-03-14T21:04:57.562Z,1.80
2023-03-14T21:07:24.398Z,1.60
2023-03-14T21:09:51.088Z,1.48
2023-03-14T21:12:17.852Z,1.60
2023-03-14T21:14:44.650Z,1.38
2023-03-14T21:17:11.320Z,1.27
2023-03-14T21:19:38.109Z,1.27
2023-03-14T21:22:06.061Z,1.20
2023-03-14T21:24:34.322Z,1.10
2023-03-14T21:27:01.159Z,1.10
2023-03-14T21:29:27.870Z,1.30
2023-03-14T21:31:54.653Z,1.27
2023-03-14T21:34:26.685Z,1.15
2023-03-14T21:36:54.749Z,1.42
2023-03-14T21:39:22.000Z,0.88
2023-03-14T21:41:48.778Z,1.13
2023-03-14T21:44:16.255Z,1.05
2023-03-14T21:46:45.921Z,0.80
2023-03-14T21:49:17.464Z,0.90
2023-03-14T21:51:47.821Z,0.80
2023-03-14T21:54:16.140Z,0.90
2023-03-14T21:56:44.204Z,1.00
2023-03-14T21:59:11.516Z,0.82
2023-03-14T22:01:38.581Z,0.82
2023-03-14T22:04:05.507Z,0.70
2023-03-14T22:06:34.929Z,0.70
2023-03-14T22:09:01.667Z,0.93
2023-03-14T22:11:28.468Z,0.80
2023-03-14T22:13:55.145Z,0.60
2023-03-14T22:16:21.825Z,0.60
2023-03-14T22:18:48.654Z,0.60
2023-03-14T22:21:15.330Z,0.68
2023-03-14T22:23:42.137Z,0.70
2023-03-14T22:26:08.863Z,0.60
2023-03-14T22:28:35.612Z,0.50
2023-03-14T22:31:03.531Z,1.08
2023-03-14T22:33:31.383Z,0.70
2023-03-14T22:35:58.346Z,0.82
2023-03-14T22:38:25.418Z,0.40
2023-03-14T22:40:52.216Z,0.40
2023-03-14T22:43:19.114Z,0.50
2023-03-14T22:45:46.106Z,0.43
2023-03-14T22:48:12.994Z,0.50
2023-03-14T22:50:40.420Z,0.57
2023-03-14T22:53:07.392Z,0.40
2023-03-14T22:55:34.181Z,0.50
2023-03-14T22:58:01.066Z,0.60
2023-03-14T23:00:29.323Z,0.50
2023-03-14T23:02:56.195Z,0.60
2023-03-14T23:05:23.232Z,0.40
2023-03-14T23:07:49.922Z,0.40
2023-03-14T23:10:17.074Z,0.30
2023-03-14T23:12:45.235Z,0.38
2023-03-14T23:15:15.440Z,0.40
2023-03-14T23:17:43.749Z,0.40
2023-03-14T23:20:12.802Z,0.30
2023-03-14T23:22:39.805Z,0.60
2023-03-14T23:25:07.438Z,0.32
2023-03-14T23:27:34.756Z,0.32
2023-03-14T23:30:01.895Z,0.40
2023-03-14T23:32:28.701Z,0.50
2023-03-14T23:34:55.485Z,0.40
2023-03-14T23:37:24.535Z,0.38
2023-03-14T23:39:51.298Z,0.65
2023-03-14T23:42:17.986Z,0.40
2023-03-14T23:44:44.633Z,0.40
2023-03-14T23:47:11.348Z,0.32
2023-03-14T23:49:38.074Z,0.40
2023-03-14T23:52:04.913Z,0.47
2023-03-14T23:54:31.691Z,0.30
2023-03-14T23:56:58.536Z,0.40
2023-03-14T23:59:25.689Z,0.50
